Time;durP1;ratioP1;P1;durP2;ratioP2;P2;SDS_P1;SDS_P2;PMS_P1;PMS_P2;Temp;Humidity;BMP_temperature;BMP_pressure;BME280_temperature;BME280_humidity;BME280_pressure;Samples;Min_cycle;Max_cycle;Signal;HPM_P1;HPM_P2
2022/05/05 00:01:41;;;;;;;20.23;12.98;;;13.80;99.90;;;;;;5034007;28;20120;-86
2022/05/05 00:04:08;;;;;;;17.90;12.90;;;13.70;99.90;;;;;;5051502;28;20037;-87
2022/05/05 00:06:34;;;;;;;20.60;12.52;;;13.70;99.90;;;;;;5049980;28;20028;-87
2022/05/05 00:09:00;;;;;;;19.77;13.10;;;13.70;99.90;;;;;;5048833;28;20022;-87
2022/05/05 00:14:31;;;;;;;18.17;12.10;;;13.70;99.90;;;;;;5050128;28;20037;-87
2022/05/05 00:17:08;;;;;;;16.65;12.55;;;13.70;99.90;;;;;;5031674;28;20025;-87
2022/05/05 00:19:40;;;;;;;17.13;11.82;;;13.70;99.90;;;;;;5029169;28;20088;-87
2022/05/05 00:22:06;;;;;;;15.50;11.82;;;13.70;99.90;;;;;;5050015;28;20029;-87
2022/05/05 00:24:32;;;;;;;19.13;11.50;;;13.70;99.90;;;;;;5056583;28;20021;-85
2022/05/05 00:26:58;;;;;;;16.02;11.10;;;13.70;99.90;;;;;;5060828;28;20021;-87
2022/05/05 00:29:24;;;;;;;17.45;11.15;;;13.70;99.90;;;;;;5060299;28;20026;-87
2022/05/05 00:31:50;;;;;;;14.73;11.88;;;13.70;99.90;;;;;;5043040;28;20044;-86
2022/05/05 00:34:17;;;;;;;18.95;11.75;;;13.70;99.90;;;;;;5060295;28;20061;-87
2022/05/05 00:36:43;;;;;;;19.60;11.38;;;13.70;99.90;;;;;;5059693;28;20021;-85
2022/05/05 00:39:12;;;;;;;16.60;11.82;;;13.70;99.90;;;;;;5060289;28;20059;-86
2022/05/05 00:41:42;;;;;;;15.90;12.10;;;13.70;99.90;;;;;;5060047;28;20030;-86
2022/05/05 00:44:08;;;;;;;24.63;12.63;;;13.70;99.90;;;;;;5052372;28;20036;-86
2022/05/05 00:46:34;;;;;;;19.52;13.10;;;13.70;99.90;;;;;;5048806;28;20053;-86
2022/05/05 00:49:00;;;;;;;19.88;13.10;;;13.70;99.90;;;;;;5035406;28;20026;-86
2022/05/05 00:51:27;;;;;;;18.50;12.88;;;13.70;99.90;;;;;;5058233;28;20021;-85
2022/05/05 00:53:54;;;;;;;17.38;13.00;;;13.60;99.90;;;;;;5043040;28;20025;-86
2022/05/05 00:56:21;;;;;;;19.77;13.57;;;13.60;99.90;;;;;;5059627;28;20052;-86
2022/05/05 00:58:48;;;;;;;22.17;13.85;;;13.60;99.90;;;;;;5059449;28;20017;-86
2022/05/05 01:01:22;;;;;;;17.85;13.35;;;13.60;99.90;;;;;;5042362;28;20030;-86
2022/05/05 01:03:48;;;;;;;20.63;13.88;;;13.50;99.90;;;;;;5059676;28;20021;-87
2022/05/05 01:06:15;;;;;;;17.67;12.77;;;13.50;99.90;;;;;;5059479;28;20040;-86
2022/05/05 01:08:42;;;;;;;19.52;13.43;;;13.50;99.90;;;;;;5042083;28;20049;-86
2022/05/05 01:11:08;;;;;;;17.60;12.88;;;13.50;99.90;;;;;;5041610;28;20037;-86
2022/05/05 01:13:39;;;;;;;17.85;12.90;;;13.50;99.90;;;;;;5027567;28;20041;-86
2022/05/05 01:16:05;;;;;;;20.92;13.07;;;13.50;99.90;;;;;;5023087;28;20476;-86
2022/05/05 01:18:31;;;;;;;17.58;12.45;;;13.50;99.90;;;;;;5038606;28;20022;-86
2022/05/05 01:20:57;;;;;;;17.10;12.15;;;13.50;99.90;;;;;;5042162;28;20040;-85
2022/05/05 01:23:23;;;;;;;19.50;13.45;;;13.50;99.90;;;;;;5043400;28;20071;-87
2022/05/05 01:28:39;;;;;;;17.40;13.27;;;13.60;99.90;;;;;;5058412;28;20037;-85
2022/05/05 01:31:05;;;;;;;17.85;13.30;;;13.60;99.90;;;;;;5058287;28;20079;-87
2022/05/05 01:33:30;;;;;;;19.08;12.35;;;13.60;99.90;;;;;;5024400;28;20018;-87
2022/05/05 01:35:58;;;;;;;22.88;13.65;;;13.60;99.90;;;;;;5057136;28;20116;-86
2022/05/05 01:38:26;;;;;;;23.10;14.50;;;13.60;99.90;;;;;;5037722;28;20033;-87
2022/05/05 01:40:52;;;;;;;19.58;13.48;;;13.50;99.90;;;;;;5019939;28;20037;-86
2022/05/05 01:43:21;;;;;;;19.02;13.43;;;13.50;99.90;;;;;;5024769;28;20101;-85
2022/05/05 01:45:47;;;;;;;22.13;13.45;;;13.50;99.90;;;;;;5034632;28;20071;-86
2022/05/05 01:48:13;;;;;;;20.40;13.68;;;13.50;99.90;;;;;;5038260;28;20029;-87
2022/05/05 01:50:39;;;;;;;19.35;14.10;;;13.50;99.90;;;;;;5093722;22;20041;-86
2022/05/05 01:53:06;;;;;;;25.55;14.18;;;13.40;99.90;;;;;;5057973;28;20468;-85
2022/05/05 01:55:33;;;;;;;24.13;15.48;;;13.40;99.90;;;;;;5058764;28;20018;-86
2022/05/05 01:58:02;;;;;;;21.20;15.45;;;13.40;99.90;;;;;;5041475;28;20075;-85
2022/05/05 02:00:28;;;;;;;23.38;15.90;;;13.30;99.90;;;;;;5051982;28;20048;-86
2022/05/05 02:02:55;;;;;;;22.88;15.23;;;13.30;99.90;;;;;;5016088;28;20025;-86
2022/05/05 02:05:21;;;;;;;22.08;15.48;;;13.30;99.90;;;;;;5054039;28;20052;-85
2022/05/05 02:07:47;;;;;;;27.00;15.05;;;13.30;99.90;;;;;;5058338;28;20041;-83
2022/05/05 02:10:15;;;;;;;19.63;15.00;;;13.20;99.90;;;;;;5056907;28;20026;-85
2022/05/05 02:12:41;;;;;;;23.42;15.38;;;13.20;99.90;;;;;;5040714;28;20037;-88
2022/05/05 02:15:09;;;;;;;23.52;15.00;;;13.20;99.90;;;;;;5040245;28;20045;-85
2022/05/05 02:17:36;;;;;;;24.42;16.38;;;13.20;99.90;;;;;;5052120;28;20021;-88
2022/05/05 02:20:04;;;;;;;22.98;15.45;;;13.10;99.90;;;;;;5049990;28;20037;-87
2022/05/05 02:22:30;;;;;;;27.17;16.75;;;13.10;99.90;;;;;;5049958;28;20075;-86
2022/05/05 02:24:56;;;;;;;24.30;16.80;;;13.10;99.90;;;;;;5036461;28;20021;-85
2022/05/05 02:27:22;;;;;;;29.80;17.80;;;13.00;99.90;;;;;;5021104;28;20121;-87
2022/05/05 02:29:49;;;;;;;27.45;16.60;;;13.00;99.90;;;;;;5037405;28;20033;-87
2022/05/05 02:32:16;;;;;;;24.27;15.48;;;13.00;99.90;;;;;;5038372;28;20035;-86
2022/05/05 02:34:44;;;;;;;23.17;16.40;;;12.90;99.90;;;;;;5055170;28;20037;-86
2022/05/05 02:39:54;;;;;;;27.65;18.40;;;12.90;99.90;;;;;;5054703;28;20030;-86
2022/05/05 02:42:20;;;;;;;27.30;17.73;;;12.90;99.90;;;;;;5037038;28;20105;-87
2022/05/05 02:44:46;;;;;;;28.02;17.10;;;12.80;99.90;;;;;;5054768;28;20017;-87
2022/05/05 02:47:12;;;;;;;27.73;16.95;;;12.80;99.90;;;;;;5037760;28;20273;-86
2022/05/05 02:49:38;;;;;;;29.42;17.83;;;12.80;99.90;;;;;;5055766;28;20081;-87
2022/05/05 02:52:05;;;;;;;23.83;16.65;;;12.80;99.90;;;;;;5056160;28;20038;-86
2022/05/05 02:54:54;;;;;;;25.70;16.98;;;12.80;99.90;;;;;;5039078;28;20017;-86
2022/05/05 02:57:20;;;;;;;37.28;18.88;;;12.80;99.90;;;;;;5055625;28;20041;-87
2022/05/05 02:59:50;;;;;;;33.72;18.67;;;12.80;99.90;;;;;;5038848;28;20014;-85
2022/05/05 03:02:19;;;;;;;28.73;17.70;;;12.80;99.90;;;;;;5038705;28;20029;-85
2022/05/05 03:04:45;;;;;;;26.92;19.27;;;12.80;99.90;;;;;;5055795;28;20036;-85
2022/05/05 03:07:11;;;;;;;25.90;17.40;;;12.80;99.90;;;;;;5055557;28;20036;-85
2022/05/05 03:09:39;;;;;;;31.63;19.10;;;12.80;99.90;;;;;;5022324;28;20021;-86
2022/05/05 03:12:06;;;;;;;26.52;18.17;;;12.80;99.90;;;;;;5038713;28;20029;-87
2022/05/05 03:14:31;;;;;;;29.73;18.02;;;12.70;99.90;;;;;;5058657;28;20021;-86
2022/05/05 03:16:58;;;;;;;28.92;18.10;;;12.70;99.90;;;;;;5059653;28;20512;-86
2022/05/05 03:19:24;;;;;;;26.63;18.23;;;12.70;99.90;;;;;;5042336;28;20039;-86
2022/05/05 03:21:50;;;;;;;27.50;19.08;;;12.70;99.90;;;;;;5059174;28;20040;-86
2022/05/05 03:24:15;;;;;;;30.00;17.83;;;12.60;99.90;;;;;;5061411;28;20038;-85
2022/05/05 03:26:41;;;;;;;25.98;17.85;;;12.60;99.90;;;;;;5042631;28;20124;-86
2022/05/05 03:29:07;;;;;;;26.98;18.52;;;12.60;99.90;;;;;;5062027;28;20024;-86
2022/05/05 03:31:33;;;;;;;31.88;18.65;;;12.60;99.90;;;;;;5061799;28;20085;-86
2022/05/05 03:33:59;;;;;;;34.38;19.20;;;12.50;99.90;;;;;;5061159;28;20018;-86
2022/05/05 03:36:24;;;;;;;27.10;18.83;;;12.50;99.90;;;;;;5061028;28;20014;-86
2022/05/05 03:38:54;;;;;;;27.73;20.00;;;12.50;99.90;;;;;;5043514;28;20066;-87
2022/05/05 03:41:20;;;;;;;37.25;19.50;;;12.50;99.90;;;;;;5058787;28;20041;-85
2022/05/05 03:43:46;;;;;;;32.92;21.13;;;12.50;99.90;;;;;;5041235;28;20030;-86
2022/05/05 03:46:12;;;;;;;31.75;20.55;;;12.50;99.90;;;;;;5043288;28;20028;-87
2022/05/05 03:48:38;;;;;;;30.65;19.52;;;12.50;99.90;;;;;;5060232;28;20013;-85
2022/05/05 03:51:04;;;;;;;30.98;21.17;;;12.50;99.90;;;;;;5058797;28;20069;-86
2022/05/05 03:53:30;;;;;;;34.33;20.00;;;12.40;99.90;;;;;;5046161;28;20450;-86
2022/05/05 03:55:56;;;;;;;28.58;20.55;;;12.50;99.90;;;;;;5045719;28;20033;-87
2022/05/05 03:58:22;;;;;;;31.80;21.00;;;12.50;99.90;;;;;;5027938;28;20029;-87
2022/05/05 04:00:48;;;;;;;30.77;22.05;;;12.40;99.90;;;;;;5045928;28;20036;-86
2022/05/05 04:03:32;;;;;;;34.78;22.20;;;12.40;99.90;;;;;;5045256;28;20026;-86
2022/05/05 04:06:03;;;;;;;34.38;22.00;;;12.40;99.90;;;;;;5028323;28;20036;-86
2022/05/05 04:08:30;;;;;;;36.85;21.33;;;12.50;99.90;;;;;;5046228;28;20033;-87
2022/05/05 04:10:56;;;;;;;33.95;21.02;;;12.50;99.90;;;;;;5028115;28;20027;-87
2022/05/05 04:13:22;;;;;;;33.25;22.30;;;12.50;99.90;;;;;;5049557;28;20088;-87
2022/05/05 04:15:48;;;;;;;32.28;21.15;;;12.50;99.90;;;;;;5046901;28;20033;-88
2022/05/05 04:18:14;;;;;;;45.38;22.27;;;12.50;99.90;;;;;;5030833;28;20051;-88
2022/05/05 04:20:42;;;;;;;37.90;22.58;;;12.60;99.90;;;;;;5042193;28;20258;-82
2022/05/05 04:23:08;;;;;;;35.55;23.92;;;12.60;99.90;;;;;;5059376;28;20017;-81
2022/05/05 04:25:35;;;;;;;33.55;22.90;;;12.60;99.90;;;;;;5058717;28;20040;-83
2022/05/05 04:28:01;;;;;;;38.38;24.20;;;12.70;99.90;;;;;;5059594;28;20018;-83
2022/05/05 04:30:27;;;;;;;35.58;22.38;;;12.70;99.90;;;;;;5042123;28;20013;-83
2022/05/05 04:32:53;;;;;;;34.22;22.67;;;12.70;99.90;;;;;;5059419;28;20037;-85
2022/05/05 04:35:19;;;;;;;40.13;22.92;;;12.80;99.90;;;;;;5069540;28;20043;-83
2022/05/05 04:37:45;;;;;;;36.17;24.20;;;12.90;99.90;;;;;;5063578;28;20048;-86
2022/05/05 04:40:11;;;;;;;38.70;24.63;;;12.90;99.90;;;;;;5043445;28;20038;-86
2022/05/05 04:42:37;;;;;;;36.50;23.95;;;12.90;99.90;;;;;;5032744;28;20028;-86
2022/05/05 04:45:04;;;;;;;36.47;22.45;;;13.00;99.90;;;;;;5050384;28;20076;-84
2022/05/05 04:47:32;;;;;;;38.30;24.23;;;13.10;99.90;;;;;;5050184;28;20635;-87
2022/05/05 04:49:58;;;;;;;36.88;23.55;;;13.20;99.90;;;;;;5048181;28;20032;-87
2022/05/05 04:52:24;;;;;;;33.67;22.85;;;13.20;99.90;;;;;;5044131;28;20393;-86
2022/05/05 04:54:51;;;;;;;36.47;23.00;;;13.30;99.90;;;;;;5043083;28;20025;-88
2022/05/05 04:57:17;;;;;;;33.35;23.17;;;13.40;99.90;;;;;;5027215;28;20064;-87
2022/05/05 04:59:43;;;;;;;36.58;23.70;;;13.50;99.90;;;;;;5044460;28;20022;-87
2022/05/05 05:02:09;;;;;;;31.65;22.67;;;13.60;99.90;;;;;;5045511;28;20029;-87
2022/05/05 05:04:35;;;;;;;35.50;23.30;;;13.70;99.90;;;;;;5044006;28;20025;-84
2022/05/05 05:07:01;;;;;;;36.53;23.27;;;13.70;99.90;;;;;;5045700;28;20026;-86
2022/05/05 05:09:27;;;;;;;32.53;22.75;;;13.80;99.90;;;;;;5035067;28;20048;-87
2022/05/05 05:11:53;;;;;;;35.20;21.40;;;13.90;99.90;;;;;;5050600;28;20204;-87
2022/05/05 05:14:18;;;;;;;35.80;22.65;;;14.10;99.90;;;;;;5017220;28;20034;-86
2022/05/05 05:16:44;;;;;;;31.70;21.13;;;14.20;99.90;;;;;;5037857;28;20030;-83
2022/05/05 05:19:10;;;;;;;32.38;19.92;;;14.40;99.90;;;;;;5040594;28;20048;-84
2022/05/05 05:21:36;;;;;;;31.38;19.23;;;14.60;99.90;;;;;;5057306;28;20049;-85
2022/05/05 05:24:02;;;;;;;30.52;19.58;;;14.70;99.90;;;;;;5056297;28;20112;-84
2022/05/05 05:26:28;;;;;;;32.35;19.00;;;14.90;99.90;;;;;;5038319;28;20097;-86
2022/05/05 05:28:54;;;;;;;32.75;17.80;;;15.10;99.90;;;;;;5057625;28;20081;-83
2022/05/05 05:31:21;;;;;;;31.10;18.17;;;15.20;99.90;;;;;;5057510;28;20017;-85
2022/05/05 05:33:48;;;;;;;26.70;17.77;;;15.30;99.90;;;;;;5039919;28;20124;-86
2022/05/05 05:36:14;;;;;;;31.75;17.83;;;15.30;99.90;;;;;;5039957;28;20035;-84
2022/05/05 05:38:40;;;;;;;29.13;17.15;;;15.30;99.90;;;;;;5057584;28;20025;-86
2022/05/05 05:41:11;;;;;;;25.55;16.65;;;15.40;99.90;;;;;;5057463;28;20053;-85
2022/05/05 05:43:37;;;;;;;27.35;16.60;;;15.50;99.90;;;;;;5039971;28;20017;-85
2022/05/05 05:46:03;;;;;;;25.30;14.75;;;16.00;99.90;;;;;;5057639;28;20037;-83
2022/05/05 05:48:28;;;;;;;28.35;14.73;;;16.30;99.90;;;;;;5056588;28;20026;-86
2022/05/05 05:50:55;;;;;;;48.17;26.50;;;16.30;99.90;;;;;;5039686;28;20029;-83
2022/05/05 05:53:21;;;;;;;32.88;18.63;;;16.40;99.90;;;;;;5056959;28;20042;-84
2022/05/05 05:55:47;;;;;;;21.55;13.55;;;16.40;99.90;;;;;;5038519;28;20022;-86
2022/05/05 05:58:13;;;;;;;20.40;13.43;;;16.40;99.90;;;;;;5056923;28;20068;-85
2022/05/05 06:00:39;;;;;;;22.95;13.75;;;16.50;99.90;;;;;;5039427;28;20059;-85
2022/05/05 06:05:50;;;;;;;20.63;11.98;;;16.60;99.90;;;;;;5039706;28;20037;-86
2022/05/05 06:08:16;;;;;;;20.80;12.57;;;16.70;99.90;;;;;;5057453;28;20053;-85
2022/05/05 06:10:42;;;;;;;23.85;11.70;;;16.90;99.90;;;;;;5040088;28;20040;-84
2022/05/05 06:13:08;;;;;;;15.82;10.85;;;16.90;99.90;;;;;;5057263;28;20017;-83
2022/05/05 06:15:33;;;;;;;22.23;14.68;;;17.00;99.90;;;;;;5056878;28;20093;-83
2022/05/05 06:17:59;;;;;;;31.02;17.52;;;17.10;99.90;;;;;;5039548;28;20041;-83
2022/05/05 06:20:25;;;;;;;22.02;15.18;;;17.10;99.90;;;;;;5057158;28;20036;-82
2022/05/05 06:22:51;;;;;;;17.98;10.82;;;17.30;99.90;;;;;;5056371;28;20029;-85
2022/05/05 06:25:19;;;;;;;19.25;10.35;;;17.30;99.90;;;;;;5038846;28;20025;-84
2022/05/05 06:27:45;;;;;;;16.27;10.45;;;17.40;99.90;;;;;;5038801;28;20029;-86
2022/05/05 06:30:13;;;;;;;15.02;9.57;;;17.40;99.90;;;;;;5056267;28;20082;-85
2022/05/05 06:32:39;;;;;;;16.85;9.90;;;17.30;99.90;;;;;;5038464;28;20044;-86
2022/05/05 06:35:06;;;;;;;14.27;9.38;;;17.50;99.90;;;;;;5037779;28;20044;-83
2022/05/05 06:37:32;;;;;;;13.77;9.90;;;17.60;99.90;;;;;;5038841;28;20033;-84
2022/05/05 06:39:58;;;;;;;12.95;8.93;;;17.60;99.90;;;;;;5055304;28;20029;-86
2022/05/05 06:42:24;;;;;;;12.63;7.63;;;17.70;99.90;;;;;;5055133;28;20033;-85
2022/05/05 06:44:50;;;;;;;18.30;8.77;;;17.80;99.90;;;;;;5020851;28;20033;-86
2022/05/05 06:47:15;;;;;;;19.52;12.88;;;17.90;99.90;;;;;;5037666;28;20036;-85
2022/05/05 06:49:41;;;;;;;16.55;9.07;;;17.90;99.90;;;;;;5054892;28;20040;-85
2022/05/05 06:52:07;;;;;;;16.00;11.25;;;17.80;99.90;;;;;;5054843;28;20037;-85
2022/05/05 06:54:34;;;;;;;16.45;11.75;;;17.80;99.90;;;;;;5055178;28;20089;-85
2022/05/05 06:57:00;;;;;;;14.13;9.00;;;18.00;99.90;;;;;;5037958;28;20029;-84
2022/05/05 06:59:25;;;;;;;12.85;8.20;;;18.00;99.90;;;;;;5055245;28;20056;-85
2022/05/05 07:01:51;;;;;;;16.23;8.57;;;18.00;99.90;;;;;;5038579;28;20030;-85
2022/05/05 07:07:06;;;;;;;12.73;8.05;;;18.20;99.90;;;;;;5056440;28;20047;-83
2022/05/05 07:12:18;;;;;;;10.07;7.15;;;18.50;99.90;;;;;;5056045;28;20056;-83
2022/05/05 07:14:44;;;;;;;16.08;7.68;;;18.50;99.90;;;;;;5038759;28;20014;-85
2022/05/05 07:17:11;;;;;;;12.40;6.80;;;18.50;99.90;;;;;;5055874;28;20045;-88
2022/05/05 07:19:38;;;;;;;15.13;7.30;;;18.60;99.90;;;;;;5051716;28;20030;-87
2022/05/05 07:22:04;;;;;;;16.42;8.27;;;18.60;99.90;;;;;;5017848;28;20036;-88
2022/05/05 07:24:31;;;;;;;13.52;7.68;;;18.70;99.90;;;;;;5018647;28;20041;-88
2022/05/05 07:26:57;;;;;;;11.50;6.68;;;18.80;99.90;;;;;;5062504;28;20040;-81
2022/05/05 07:29:23;;;;;;;12.73;6.22;;;19.00;99.90;;;;;;5063719;28;20033;-81
2022/05/05 07:31:49;;;;;;;18.35;8.02;;;19.10;99.90;;;;;;5068500;28;20032;-84
2022/05/05 07:34:15;;;;;;;17.00;7.22;;;19.30;99.90;;;;;;5072766;28;20092;-80
2022/05/05 07:36:42;;;;;;;12.65;6.90;;;19.20;99.90;;;;;;5063534;28;20045;-85
2022/05/05 07:39:08;;;;;;;10.95;7.10;;;19.10;99.90;;;;;;5055791;28;20014;-83
2022/05/05 07:41:34;;;;;;;10.65;6.80;;;19.20;99.90;;;;;;5044885;28;20048;-84
2022/05/05 07:44:01;;;;;;;11.70;5.90;;;19.20;99.90;;;;;;5054940;28;20017;-85
2022/05/05 07:46:27;;;;;;;10.90;6.15;;;19.30;99.90;;;;;;5050837;28;20049;-82
2022/05/05 07:48:54;;;;;;;8.63;6.32;;;19.30;99.90;;;;;;5017163;28;20124;-85
2022/05/05 07:51:20;;;;;;;14.93;6.15;;;19.40;99.90;;;;;;5061981;23;20060;-87
2022/05/05 07:56:30;;;;;;;9.85;5.53;;;19.40;99.90;;;;;;5063577;28;20108;-86
2022/05/05 07:58:56;;;;;;;8.55;5.80;;;19.60;99.90;;;;;;5063925;28;20052;-86
2022/05/05 08:01:22;;;;;;;12.82;5.97;;;19.80;99.90;;;;;;5056502;28;20041;-86
2022/05/05 08:03:48;;;;;;;7.50;5.40;;;20.00;99.90;;;;;;5051252;28;20022;-85
2022/05/05 08:06:14;;;;;;;9.02;4.93;;;20.00;99.90;;;;;;5057309;28;20060;-84
2022/05/05 08:08:39;;;;;;;10.77;4.75;;;20.00;99.90;;;;;;5058109;28;20026;-84
2022/05/05 08:11:05;;;;;;;5.15;4.15;;;20.10;99.90;;;;;;5052394;28;20063;-83
2022/05/05 08:13:34;;;;;;;7.65;4.57;;;20.10;99.90;;;;;;5046562;28;20022;-85
2022/05/05 08:16:00;;;;;;;9.25;4.75;;;20.20;99.90;;;;;;5047342;28;20053;-86
2022/05/05 08:18:26;;;;;;;9.25;5.03;;;20.10;99.90;;;;;;5048054;28;20491;-86
2022/05/05 08:20:52;;;;;;;7.43;4.97;;;20.00;99.90;;;;;;5049379;28;20034;-87
2022/05/05 08:23:18;;;;;;;8.38;5.25;;;19.90;99.90;;;;;;5050731;28;20021;-85
2022/05/05 08:28:28;;;;;;;8.07;4.57;;;20.10;99.90;;;;;;5050228;28;20017;-86
2022/05/05 08:30:56;;;;;;;8.43;5.63;;;20.20;99.90;;;;;;5048889;28;20025;-86
2022/05/05 08:33:24;;;;;;;7.88;4.80;;;20.40;99.90;;;;;;5052265;28;20034;-87
2022/05/05 08:35:50;;;;;;;7.82;5.78;;;20.60;99.90;;;;;;5046468;28;20018;-85
2022/05/05 08:38:17;;;;;;;12.30;4.90;;;20.60;99.90;;;;;;5050985;28;20036;-85
2022/05/05 08:40:43;;;;;;;6.85;4.88;;;20.50;99.90;;;;;;5049219;28;20093;-85
2022/05/05 08:43:09;;;;;;;8.85;5.43;;;20.50;99.90;;;;;;5045648;28;20044;-87
2022/05/05 08:45:38;;;;;;;14.40;5.47;;;20.70;99.90;;;;;;5046139;28;20033;-85
2022/05/05 08:48:12;;;;;;;13.43;4.90;;;20.70;99.90;;;;;;5045263;28;20026;-85
2022/05/05 08:50:40;;;;;;;7.45;4.88;;;20.70;99.90;;;;;;5045784;28;20032;-85
2022/05/05 08:53:07;;;;;;;9.82;5.10;;;20.70;99.90;;;;;;5044863;28;20044;-85
2022/05/05 08:55:34;;;;;;;9.82;5.38;;;20.80;99.90;;;;;;5043683;28;20047;-85
2022/05/05 08:58:01;;;;;;;9.75;4.22;;;21.00;99.90;;;;;;5045639;28;20021;-85
2022/05/05 09:00:28;;;;;;;10.63;4.30;;;21.10;99.90;;;;;;5043897;28;20040;-85
2022/05/05 09:02:55;;;;;;;4.15;3.03;;;21.00;99.90;;;;;;5044375;28;20022;-87
2022/05/05 09:05:42;;;;;;;6.80;3.40;;;21.00;99.90;;;;;;5044467;28;20030;-86
2022/05/05 09:08:25;;;;;;;6.30;4.63;;;21.20;99.90;;;;;;5043182;28;20021;-85
2022/05/05 09:10:52;;;;;;;6.63;5.03;;;21.20;99.90;;;;;;5042583;28;20040;-86
2022/05/05 09:13:26;;;;;;;8.75;4.13;;;21.50;99.90;;;;;;5042510;28;20059;-85
2022/05/05 09:15:53;;;;;;;5.15;3.88;;;21.70;99.90;;;;;;5045899;28;20033;-87
2022/05/05 09:18:28;;;;;;;5.07;3.53;;;22.00;99.90;;;;;;5046809;28;20036;-87
2022/05/05 09:20:56;;;;;;;7.20;3.58;;;22.30;99.90;;;;;;5050682;28;20030;-85
2022/05/05 09:23:36;;;;;;;7.90;3.33;;;22.50;99.70;;;;;;5034755;28;20033;-85
2022/05/05 09:26:04;;;;;;;15.98;3.88;;;22.90;99.30;;;;;;5053587;28;20037;-83
2022/05/05 09:28:32;;;;;;;6.70;3.70;;;23.30;98.50;;;;;;5045966;28;20029;-88
2022/05/05 09:31:03;;;;;;;6.28;3.35;;;23.80;97.50;;;;;;5047124;28;20057;-86
2022/05/05 09:33:36;;;;;;;4.40;3.03;;;24.40;96.80;;;;;;5048252;28;20029;-85
2022/05/05 09:36:04;;;;;;;4.57;3.15;;;25.00;95.60;;;;;;5049069;28;20048;-85
2022/05/05 09:38:50;;;;;;;5.38;2.63;;;25.90;94.20;;;;;;5051223;28;20040;-84
2022/05/05 09:41:17;;;;;;;3.38;2.88;;;26.80;92.30;;;;;;5052512;28;20049;-85
2022/05/05 09:43:43;;;;;;;4.95;2.63;;;27.00;91.40;;;;;;5054541;28;20024;-84
2022/05/05 09:46:25;;;;;;;4.95;3.05;;;28.10;90.30;;;;;;5055445;28;20021;-83
2022/05/05 09:49:09;;;;;;;4.10;2.22;;;29.60;84.50;;;;;;5054420;28;20029;-83
2022/05/05 09:51:38;;;;;;;4.30;2.47;;;30.20;81.50;;;;;;5056115;28;20030;-84
2022/05/05 09:59:42;;;;;;;4.88;2.67;;;32.00;71.60;;;;;;5053263;28;20032;-84
2022/05/05 10:02:15;;;;;;;;;;;31.90;70.80;;;;;;5056897;28;20055;-85
2022/05/05 10:04:51;;;;;;;4.95;1.83;;;32.00;68.20;;;;;;5057020;28;19913;-84
2022/05/05 10:07:20;;;;;;;2.28;1.92;;;31.80;67.20;;;;;;5040613;28;20027;-84
2022/05/05 10:09:49;;;;;;;3.05;1.92;;;30.70;67.50;;;;;;5056636;28;20053;-84
2022/05/05 10:12:17;;;;;;;3.80;1.90;;;30.50;68.40;;;;;;5057342;28;20091;-85
2022/05/05 10:14:43;;;;;;;2.75;2.05;;;31.60;67.10;;;;;;5055173;28;20017;-84
2022/05/05 10:17:11;;;;;;;1.80;1.70;;;32.50;65.20;;;;;;5037325;28;20068;-86
2022/05/05 10:19:37;;;;;;;2.58;1.38;;;33.40;63.70;;;;;;5036633;28;20013;-85
2022/05/05 10:22:11;;;;;;;3.22;1.55;;;34.70;60.70;;;;;;5035937;28;20041;-87
2022/05/05 10:25:03;;;;;;;2.25;1.77;;;35.30;59.60;;;;;;5036084;28;20046;-85
2022/05/05 10:27:29;;;;;;;4.80;3.28;;;36.10;57.80;;;;;;5037522;28;20014;-85
2022/05/05 10:29:56;;;;;;;4.75;1.85;;;34.70;58.20;;;;;;5036696;28;20042;-85
2022/05/05 10:32:25;;;;;;;2.22;1.65;;;33.30;58.80;;;;;;5036687;28;20037;-84
2022/05/05 10:35:11;;;;;;;5.50;1.77;;;32.60;59.30;;;;;;5037518;28;20033;-85
2022/05/05 10:37:38;;;;;;;23.50;19.17;;;31.70;60.40;;;;;;5042865;28;20322;-85
2022/05/05 10:40:08;;;;;;;1.60;1.50;;;30.80;61.10;;;;;;5049175;28;20033;-84
2022/05/05 10:42:39;;;;;;;1.88;1.63;;;30.30;62.10;;;;;;5050861;28;20037;-84
2022/05/05 10:45:05;;;;;;;4.70;1.65;;;30.60;62.10;;;;;;5043688;28;20018;-88
2022/05/05 10:47:51;;;;;;;2.75;1.80;;;30.90;61.50;;;;;;5040264;28;20009;-86
2022/05/05 10:50:28;;;;;;;3.50;2.30;;;31.30;61.10;;;;;;5047424;28;20033;-88
2022/05/05 10:52:54;;;;;;;4.07;2.05;;;31.50;60.80;;;;;;5045748;28;20046;-84
2022/05/05 10:55:34;;;;;;;2.97;2.40;;;32.70;59.80;;;;;;5039324;28;20026;-86
2022/05/05 10:58:00;;;;;;;1.63;1.40;;;34.40;58.00;;;;;;5044270;28;20021;-89
2022/05/05 11:00:40;;;;;;;8.80;1.65;;;36.20;56.00;;;;;;5051484;28;20116;-88
2022/05/05 11:03:11;;;;;;;4.05;2.38;;;37.80;54.70;;;;;;5033423;28;20022;-87
2022/05/05 11:05:38;;;;;;;4.10;1.50;;;39.20;52.40;;;;;;5049637;28;20071;-84
2022/05/05 11:08:14;;;;;;;2.08;1.35;;;39.70;51.00;;;;;;5045166;28;20049;-88
2022/05/05 11:10:47;;;;;;;2.88;1.23;;;40.80;48.90;;;;;;5042188;28;20401;-86
2022/05/05 11:13:37;;;;;;;1.85;1.10;;;40.80;48.00;;;;;;5033705;28;20033;-85
2022/05/05 11:22:15;;;;;;;1.75;1.42;;;41.30;46.50;;;;;;5035717;28;20022;-85
2022/05/05 11:24:46;;;;;;;4.43;1.30;;;41.20;46.00;;;;;;5035815;28;20030;-85
2022/05/05 11:27:15;;;;;;;4.00;1.42;;;39.50;46.50;;;;;;5034968;28;20042;-85
2022/05/05 11:29:56;;;;;;;2.90;1.45;;;37.20;48.20;;;;;;5047080;28;20055;-85
2022/05/05 11:32:33;;;;;;;3.72;1.48;;;34.40;50.10;;;;;;5032893;28;20437;-86
2022/05/05 11:34:59;;;;;;;2.83;1.75;;;32.60;51.40;;;;;;5028290;28;20045;-87
2022/05/05 11:37:26;;;;;;;1.95;1.35;;;31.30;53.30;;;;;;5040689;28;20066;-89
2022/05/05 11:39:52;;;;;;;3.38;1.70;;;29.90;55.00;;;;;;5027863;28;20064;-88
2022/05/05 11:42:18;;;;;;;4.43;1.77;;;29.90;55.40;;;;;;5031188;28;20457;-88
2022/05/05 11:44:45;;;;;;;4.70;1.83;;;29.90;55.60;;;;;;5040680;28;20029;-85
2022/05/05 11:47:13;;;;;;;5.55;2.08;;;29.40;56.30;;;;;;5029291;28;20037;-87
2022/05/05 11:49:43;;;;;;;5.00;1.85;;;28.00;58.00;;;;;;5029149;28;20030;-86
2022/05/05 11:52:14;;;;;;;4.13;2.10;;;26.80;59.70;;;;;;5030022;28;20029;-86
2022/05/05 11:54:40;;;;;;;10.55;3.42;;;25.80;61.50;;;;;;5028180;28;20037;-85
2022/05/05 11:57:06;;;;;;;9.23;3.17;;;25.50;62.70;;;;;;5026821;28;20022;-87
2022/05/05 12:02:19;;;;;;;3.10;1.88;;;25.70;62.10;;;;;;5039460;28;20048;-84
2022/05/05 12:04:55;;;;;;;10.18;2.10;;;26.20;62.00;;;;;;5037085;28;20014;-86
2022/05/05 12:07:24;;;;;;;2.95;1.58;;;26.20;61.20;;;;;;5045844;28;20020;-86
2022/05/05 12:09:53;;;;;;;3.75;2.00;;;25.90;61.60;;;;;;5041901;28;20029;-88
2022/05/05 12:12:21;;;;;;;6.63;2.58;;;25.60;62.00;;;;;;5043294;28;20597;-87
2022/05/05 12:14:49;;;;;;;6.15;2.55;;;25.30;62.60;;;;;;5046985;28;20022;-90
2022/05/05 12:17:20;;;;;;;5.43;2.40;;;25.10;63.70;;;;;;5054431;28;20009;-87
2022/05/05 12:19:55;;;;;;;7.20;2.22;;;25.10;63.20;;;;;;5046006;28;20054;-86
2022/05/05 12:22:32;;;;;;;4.93;2.60;;;25.20;64.10;;;;;;5050594;28;20444;-88
2022/05/05 12:25:16;;;;;;;5.80;2.70;;;24.90;64.80;;;;;;5047969;28;20086;-87
2022/05/05 12:27:41;;;;;;;7.72;3.83;;;25.50;65.10;;;;;;5049895;28;20025;-87
2022/05/05 12:30:09;;;;;;;11.10;4.47;;;26.20;64.60;;;;;;5050979;28;20031;-85
2022/05/05 12:32:35;;;;;;;6.95;3.60;;;26.40;64.30;;;;;;5049810;28;20033;-85
2022/05/05 12:35:07;;;;;;;11.73;4.90;;;27.50;63.40;;;;;;5054085;28;20018;-84
2022/05/05 12:37:33;;;;;;;9.98;3.70;;;28.80;61.40;;;;;;5048903;28;20045;-86
2022/05/05 12:40:01;;;;;;;7.15;3.15;;;29.10;60.70;;;;;;5047729;28;20021;-87
2022/05/05 12:42:48;;;;;;;1.92;1.50;;;28.90;59.90;;;;;;5048650;28;20021;-84
2022/05/05 12:45:24;;;;;;;7.63;1.92;;;27.10;61.20;;;;;;5047728;28;20032;-86
2022/05/05 12:47:51;;;;;;;3.45;1.92;;;26.60;62.30;;;;;;5047047;28;20034;-87
2022/05/05 12:50:27;;;;;;;2.25;1.65;;;26.40;62.60;;;;;;5053411;28;20006;-85
2022/05/05 13:01:06;;;;;;;2.28;1.50;;;28.30;59.90;;;;;;5042354;28;20025;-88
2022/05/05 13:03:32;;;;;;;3.47;1.13;;;28.80;59.40;;;;;;5046142;28;20053;-87
2022/05/05 13:05:58;;;;;;;3.97;1.30;;;28.80;58.30;;;;;;5046106;28;20038;-87
2022/05/05 13:08:24;;;;;;;3.05;1.30;;;28.70;58.30;;;;;;5048021;28;20021;-87
2022/05/05 13:10:50;;;;;;;2.40;1.10;;;28.60;58.50;;;;;;5049354;28;20037;-84
2022/05/05 13:13:15;;;;;;;1.92;1.30;;;29.30;57.00;;;;;;5047204;28;20082;-87
2022/05/05 13:15:42;;;;;;;4.10;1.27;;;30.30;55.90;;;;;;5049089;28;20041;-87
2022/05/05 13:18:08;;;;;;;3.25;1.35;;;30.30;55.50;;;;;;5048612;28;20029;-86
2022/05/05 13:20:34;;;;;;;3.60;1.45;;;29.90;55.30;;;;;;5048904;28;20026;-86
2022/05/05 13:23:02;;;;;;;1.38;1.20;;;29.60;55.40;;;;;;5033217;28;20036;-85
2022/05/05 13:25:28;;;;;;;2.60;1.40;;;29.60;55.50;;;;;;5053147;28;20021;-85